NFFN/NAN METAR and TAF weather

Enter ICAO airport designator
Station Type Date Time Source
NFFN METAR 2019/10/21 05:00 UTC NOAA

NFFN 210500Z 31010KT 9999 SCT028TCU SCT048 28/26 Q1011 NOSIG


Station Type Date Time Source
NFFN Decoded METAR 2019/10/21 05:00 UTC NOAA

Nandi, Fiji (NFFN) 17-45S 177-27E 18M
Oct 21, 2019 - 01:00 AM EDT / 2019.10.21 0500 UTC
Wind: from the NW (310 degrees) at 12 MPH (10 KT):0
Visibility: greater than 7 mile(s):0
Sky conditions: partly cloudy
Weather: Towering cumulus clouds observed
Temperature: 82 F (28 C)
Dew Point: 78 F (26 C)
Relative Humidity: 88%
Pressure (altimeter): 29.85 in. Hg (1011 hPa)
ob: NFFN 210500Z 31010KT 9999 SCT028TCU SCT048 28/26 Q1011 NOSIG
cycle: 5

Station Type Date Time Source
NFFN TAF 2019/10/20 18:10 UTC NOAA

TAF NFFN 201708Z 2018/2118 11007KT 9999 FEW030
BECMG 2022/2024 29010KT
BECMG 2104/2106 10007KT

Example: see airport list